createdAt,value
2022-08-24T00:01:21.900Z,25.50
2022-08-24T00:03:49.423Z,25.60
2022-08-24T00:06:23.802Z,25.60
2022-08-24T00:08:53.025Z,25.60
2022-08-24T00:11:20.453Z,25.50
2022-08-24T00:13:47.651Z,25.10
2022-08-24T00:16:15.633Z,25.60
2022-08-24T00:18:43.053Z,25.50
2022-08-24T00:21:09.921Z,25.40
2022-08-24T00:23:36.704Z,25.40
2022-08-24T00:26:04.850Z,25.40
2022-08-24T00:28:31.844Z,25.40
2022-08-24T00:30:58.624Z,25.40
2022-08-24T00:33:25.596Z,25.40
2022-08-24T00:35:52.423Z,25.40
2022-08-24T00:38:19.254Z,25.30
2022-08-24T00:40:48.659Z,25.30
2022-08-24T00:43:20.034Z,25.30
2022-08-24T00:45:54.502Z,25.20
2022-08-24T00:48:30.395Z,25.20
2022-08-24T00:50:59.625Z,25.20
2022-08-24T00:53:32.386Z,25.20
2022-08-24T00:56:03.734Z,25.20
2022-08-24T00:58:36.318Z,25.20
2022-08-24T01:01:06.971Z,25.20
2022-08-24T01:03:35.896Z,25.20
2022-08-24T01:06:02.787Z,25.20
2022-08-24T01:08:29.909Z,25.10
2022-08-24T01:11:03.460Z,25.00
2022-08-24T01:13:32.304Z,25.10
2022-08-24T01:16:03.387Z,25.10
2022-08-24T01:18:49.647Z,25.10
2022-08-24T01:21:33.686Z,25.10
2022-08-24T01:24:04.056Z,25.00
2022-08-24T01:26:48.578Z,25.00
2022-08-24T01:29:23.624Z,24.90
2022-08-24T01:31:51.026Z,24.90
2022-08-24T01:34:17.749Z,24.90
2022-08-24T01:36:50.403Z,24.80
2022-08-24T01:39:22.091Z,24.80
2022-08-24T01:41:49.043Z,24.90
2022-08-24T01:44:15.987Z,24.90
2022-08-24T01:46:48.632Z,24.90
2022-08-24T01:49:16.722Z,24.90
2022-08-24T01:51:46.319Z,24.90
2022-08-24T01:54:14.219Z,24.90
2022-08-24T01:56:41.111Z,24.80
2022-08-24T01:59:07.889Z,24.80
2022-08-24T02:01:39.566Z,24.80
2022-08-24T02:04:09.556Z,24.70
2022-08-24T02:06:37.685Z,24.70
2022-08-24T02:09:05.107Z,24.60
2022-08-24T02:11:32.751Z,24.60
2022-08-24T02:14:00.373Z,24.60
2022-08-24T02:16:28.542Z,24.60
2022-08-24T02:18:56.183Z,24.60
2022-08-24T02:21:23.015Z,24.70
2022-08-24T02:23:49.728Z,24.70
2022-08-24T02:26:17.185Z,24.70
2022-08-24T02:28:43.951Z,24.60
2022-08-24T02:31:12.999Z,24.60
2022-08-24T02:33:40.549Z,24.70
2022-08-24T02:36:25.350Z,24.70
2022-08-24T02:38:54.229Z,25.20
2022-08-24T02:41:21.998Z,24.50
2022-08-24T02:43:48.743Z,24.50
2022-08-24T02:46:20.185Z,24.50
2022-08-24T02:48:46.960Z,24.50
2022-08-24T02:51:42.242Z,24.50
2022-08-24T02:54:12.294Z,24.40
2022-08-24T02:56:39.704Z,24.40
2022-08-24T02:59:06.802Z,24.40
2022-08-24T03:01:33.608Z,24.40
2022-08-24T03:04:00.643Z,24.40
2022-08-24T03:06:27.352Z,24.40
2022-08-24T03:08:56.170Z,24.40
2022-08-24T03:11:28.066Z,24.40
2022-08-24T03:13:58.262Z,24.30
2022-08-24T03:16:26.085Z,24.30
2022-08-24T03:18:52.791Z,24.30
2022-08-24T03:21:19.538Z,24.30
2022-08-24T03:23:46.538Z,24.30
2022-08-24T03:26:14.097Z,24.30
2022-08-24T03:28:40.953Z,24.20
2022-08-24T03:31:11.241Z,24.20
2022-08-24T03:33:38.267Z,24.20
2022-08-24T03:36:05.176Z,24.10
2022-08-24T03:38:31.967Z,24.10
2022-08-24T03:40:58.737Z,24.00
2022-08-24T03:43:44.214Z,24.10
2022-08-24T03:46:12.051Z,24.00
2022-08-24T03:48:44.542Z,24.00
2022-08-24T03:51:13.433Z,24.00
2022-08-24T03:53:42.989Z,24.00
2022-08-24T03:56:10.796Z,24.00
2022-08-24T03:58:39.324Z,24.00
2022-08-24T04:01:06.527Z,24.00
2022-08-24T04:03:42.035Z,24.00
2022-08-24T04:06:09.588Z,24.00
2022-08-24T04:08:39.390Z,23.90
2022-08-24T04:11:09.756Z,23.90
2022-08-24T04:13:36.477Z,23.90
2022-08-24T04:16:08.088Z,23.80
2022-08-24T04:18:35.280Z,23.90
2022-08-24T04:21:02.368Z,24.00
2022-08-24T04:23:46.536Z,23.90
2022-08-24T04:26:15.895Z,23.90
2022-08-24T04:28:42.842Z,23.80
2022-08-24T04:31:09.682Z,23.80
2022-08-24T04:33:37.108Z,23.80
2022-08-24T04:36:08.957Z,23.80
2022-08-24T04:38:36.781Z,23.70
2022-08-24T04:41:08.949Z,23.70
2022-08-24T04:43:45.275Z,23.70
2022-08-24T04:46:15.541Z,23.70
2022-08-24T04:48:45.335Z,23.70
2022-08-24T04:51:14.227Z,23.70
2022-08-24T04:53:42.489Z,23.70
2022-08-24T04:56:20.121Z,23.70
2022-08-24T04:58:47.324Z,23.70
2022-08-24T05:01:17.945Z,23.70
2022-08-24T05:03:50.227Z,23.60
2022-08-24T05:06:19.822Z,23.70
2022-08-24T05:08:47.505Z,23.70
2022-08-24T05:11:17.408Z,23.70
2022-08-24T05:13:44.577Z,23.70
2022-08-24T05:16:20.557Z,23.80
2022-08-24T05:18:48.285Z,23.80
2022-08-24T05:21:19.555Z,23.90
2022-08-24T05:23:48.520Z,23.90
2022-08-24T05:26:18.580Z,23.80
2022-08-24T05:28:46.566Z,23.80
2022-08-24T05:31:19.257Z,23.90
2022-08-24T05:33:46.709Z,23.80
2022-08-24T05:36:23.355Z,23.90
2022-08-24T05:38:52.413Z,23.90
2022-08-24T05:41:19.909Z,24.00
2022-08-24T05:43:46.659Z,24.10
2022-08-24T05:46:14.994Z,24.20
2022-08-24T05:48:43.248Z,24.20
2022-08-24T05:51:19.985Z,24.30
2022-08-24T05:53:46.796Z,24.40
2022-08-24T05:56:16.335Z,24.40
2022-08-24T05:58:43.263Z,24.30
2022-08-24T06:01:20.866Z,24.20
2022-08-24T06:03:49.198Z,24.10
2022-08-24T06:06:17.437Z,24.20
2022-08-24T06:08:48.353Z,24.30
2022-08-24T06:11:45.617Z,24.40
2022-08-24T06:14:15.095Z,24.30
2022-08-24T06:16:44.447Z,24.10
2022-08-24T06:19:13.337Z,24.20
2022-08-24T06:21:41.093Z,24.30
2022-08-24T06:24:08.061Z,24.40
2022-08-24T06:27:01.412Z,24.60
2022-08-24T06:29:28.361Z,24.60
2022-08-24T06:31:56.289Z,24.70
2022-08-24T06:34:25.980Z,24.70
2022-08-24T06:36:52.829Z,24.90
2022-08-24T06:39:20.638Z,24.90
2022-08-24T06:41:47.420Z,24.90
2022-08-24T06:44:14.203Z,24.90
2022-08-24T06:46:41.281Z,24.70
2022-08-24T06:49:08.140Z,24.90
2022-08-24T06:51:35.252Z,25.00
2022-08-24T06:54:02.125Z,25.10
2022-08-24T06:56:28.991Z,25.20
2022-08-24T06:58:55.906Z,25.20
2022-08-24T07:01:26.169Z,25.40
2022-08-24T07:03:53.592Z,25.40
2022-08-24T07:06:21.550Z,25.60
2022-08-24T07:08:48.445Z,25.60
2022-08-24T07:11:18.078Z,25.70
2022-08-24T07:13:47.443Z,25.70
2022-08-24T07:16:16.269Z,25.70
2022-08-24T07:18:45.009Z,25.70
2022-08-24T07:21:14.211Z,25.80
2022-08-24T07:23:42.915Z,25.80
2022-08-24T07:26:20.886Z,25.90
2022-08-24T07:28:49.741Z,25.90
2022-08-24T07:31:16.572Z,26.00
2022-08-24T07:33:43.366Z,26.00
2022-08-24T07:36:10.307Z,26.10
2022-08-24T07:38:39.574Z,26.10
2022-08-24T07:41:33.744Z,26.10
2022-08-24T07:43:54.579Z,26.10
2022-08-24T07:46:21.476Z,26.10
2022-08-24T07:48:48.613Z,26.20
2022-08-24T07:51:20.328Z,26.20
2022-08-24T07:53:54.629Z,26.30
2022-08-24T07:56:21.656Z,26.30
2022-08-24T07:58:48.484Z,26.20
2022-08-24T08:01:15.497Z,26.20
2022-08-24T08:03:42.349Z,26.30
2022-08-24T08:06:16.258Z,26.40
2022-08-24T08:08:43.827Z,26.40
2022-08-24T08:11:11.271Z,26.50
2022-08-24T08:16:11.166Z,26.70
2022-08-24T08:18:38.388Z,26.70
2022-08-24T08:21:26.379Z,26.80
2022-08-24T08:24:11.632Z,26.90
2022-08-24T08:26:38.996Z,26.90
2022-08-24T08:29:06.262Z,27.00
2022-08-24T08:31:34.384Z,27.10
2022-08-24T08:34:01.418Z,27.20
2022-08-24T08:36:28.336Z,27.10
2022-08-24T08:38:55.283Z,27.20
2022-08-24T08:41:42.168Z,27.20
2022-08-24T08:44:25.796Z,27.30
2022-08-24T08:47:01.084Z,27.40
2022-08-24T08:49:30.684Z,27.50
2022-08-24T08:52:32.722Z,27.50
2022-08-24T08:55:33.931Z,27.60
2022-08-24T08:58:03.444Z,27.40
2022-08-24T09:00:43.445Z,27.40
2022-08-24T09:03:26.115Z,27.50
2022-08-24T09:06:16.732Z,27.40
2022-08-24T09:09:01.905Z,27.40
2022-08-24T09:12:07.782Z,27.60
2022-08-24T09:15:02.830Z,27.70
2022-08-24T09:17:50.400Z,27.70
2022-08-24T09:21:00.968Z,27.80
2022-08-24T09:23:51.968Z,27.80
2022-08-24T09:26:29.773Z,27.70
2022-08-24T09:29:15.643Z,27.70
2022-08-24T09:31:51.696Z,27.50
2022-08-24T09:34:38.860Z,27.50
2022-08-24T09:37:49.871Z,27.60
2022-08-24T09:40:33.604Z,27.80
2022-08-24T09:43:21.299Z,27.90
2022-08-24T09:46:33.672Z,28.10
2022-08-24T09:49:00.375Z,28.10
2022-08-24T09:52:05.370Z,28.20
2022-08-24T09:54:53.652Z,28.30
2022-08-24T09:57:50.386Z,28.40
2022-08-24T10:00:25.307Z,28.50
2022-08-24T10:03:36.098Z,28.70
2022-08-24T10:06:17.853Z,28.70
2022-08-24T10:08:47.569Z,28.80
2022-08-24T10:11:22.026Z,28.70
2022-08-24T10:14:14.159Z,28.80
2022-08-24T10:17:04.653Z,29.00
2022-08-24T10:19:50.206Z,29.20
2022-08-24T10:22:27.438Z,29.40
2022-08-24T10:25:19.015Z,29.50
2022-08-24T10:28:02.041Z,29.40
2022-08-24T10:30:37.597Z,29.50
2022-08-24T10:33:13.435Z,29.20
2022-08-24T10:36:26.628Z,29.20
2022-08-24T10:39:24.098Z,29.40
2022-08-24T10:42:35.623Z,29.70
2022-08-24T10:45:26.044Z,30.10
2022-08-24T10:48:35.310Z,30.40
2022-08-24T10:51:08.434Z,30.50
2022-08-24T10:53:36.019Z,30.70
2022-08-24T10:56:08.620Z,30.80
2022-08-24T10:58:37.202Z,31.00
2022-08-24T11:01:31.838Z,31.30
2022-08-24T11:04:01.950Z,31.10
2022-08-24T11:06:38.810Z,31.30
2022-08-24T11:09:17.244Z,31.50
2022-08-24T11:11:48.681Z,31.80
2022-08-24T11:14:15.358Z,32.00
2022-08-24T11:16:45.437Z,32.20
2022-08-24T11:19:14.978Z,32.30
2022-08-24T11:21:54.552Z,32.40
2022-08-24T11:24:24.449Z,32.60
2022-08-24T11:27:06.550Z,32.80
2022-08-24T11:29:51.295Z,32.80
2022-08-24T11:32:51.302Z,33.00
2022-08-24T11:35:32.459Z,33.10
2022-08-24T11:38:22.656Z,33.20
2022-08-24T11:41:12.786Z,33.50
2022-08-24T11:43:51.505Z,33.60
2022-08-24T11:46:47.947Z,33.70
2022-08-24T11:49:22.097Z,33.90
2022-08-24T11:52:03.137Z,34.40
2022-08-24T11:54:38.532Z,34.70
2022-08-24T11:57:18.199Z,34.80
2022-08-24T11:59:58.496Z,35.10
2022-08-24T12:02:55.495Z,35.40
2022-08-24T12:05:37.405Z,35.70
2022-08-24T12:08:48.938Z,36.10
2022-08-24T12:11:41.147Z,36.20
2022-08-24T12:14:34.196Z,36.30
2022-08-24T12:17:23.746Z,36.30
2022-08-24T12:19:55.771Z,36.50
2022-08-24T12:22:23.517Z,36.80
2022-08-24T12:24:54.359Z,36.90
2022-08-24T12:27:32.058Z,37.20
2022-08-24T12:30:14.642Z,37.40
2022-08-24T12:32:57.923Z,37.60
2022-08-24T12:35:38.025Z,37.90
2022-08-24T12:38:22.898Z,38.10
2022-08-24T12:41:14.572Z,38.50
2022-08-24T12:44:14.986Z,38.60
2022-08-24T12:46:44.561Z,38.50
2022-08-24T12:49:30.499Z,38.80
2022-08-24T12:52:30.399Z,39.10
2022-08-24T12:55:40.976Z,39.50
2022-08-24T12:58:34.442Z,39.80
2022-08-24T13:01:06.689Z,39.60
2022-08-24T13:03:37.241Z,39.80
2022-08-24T13:06:18.892Z,40.40
2022-08-24T13:08:50.736Z,40.60
2022-08-24T13:11:24.169Z,41.00
2022-08-24T13:14:17.418Z,41.50
2022-08-24T13:16:52.367Z,41.60
2022-08-24T13:19:34.222Z,41.90
2022-08-24T13:22:09.947Z,42.30
2022-08-24T13:24:38.517Z,42.90
2022-08-24T13:27:15.641Z,43.10
2022-08-24T13:29:44.003Z,43.00
2022-08-24T13:32:20.904Z,42.60
2022-08-24T13:34:51.041Z,42.40
2022-08-24T13:37:23.560Z,42.30
2022-08-24T13:40:13.789Z,42.20
2022-08-24T13:42:52.425Z,42.40
2022-08-24T13:45:31.497Z,43.20
2022-08-24T13:48:08.268Z,43.30
2022-08-24T13:50:57.233Z,43.10
2022-08-24T13:53:44.428Z,42.80
2022-08-24T13:56:55.257Z,42.40
2022-08-24T13:59:56.200Z,42.20
2022-08-24T14:02:27.717Z,42.30
2022-08-24T14:04:57.466Z,42.40
2022-08-24T14:07:47.408Z,42.20
2022-08-24T14:10:29.612Z,42.40
2022-08-24T14:13:04.267Z,42.60
2022-08-24T14:16:14.316Z,42.60
2022-08-24T14:19:15.353Z,42.80
2022-08-24T14:22:19.018Z,43.20
2022-08-24T14:25:05.412Z,43.30
2022-08-24T14:27:41.214Z,43.00
2022-08-24T14:30:20.231Z,43.00
2022-08-24T14:33:01.778Z,43.20
2022-08-24T14:35:42.990Z,43.40
2022-08-24T14:38:11.565Z,43.60
2022-08-24T14:40:51.370Z,43.60
2022-08-24T14:43:31.301Z,43.50
2022-08-24T14:46:12.780Z,42.90
2022-08-24T14:48:59.244Z,41.30
2022-08-24T14:51:44.504Z,39.50
2022-08-24T14:54:33.031Z,38.00
2022-08-24T14:57:31.033Z,37.00
2022-08-24T15:00:12.150Z,36.10
2022-08-24T15:02:51.127Z,35.10
2022-08-24T15:05:41.494Z,34.70
2022-08-24T15:08:11.604Z,34.60
2022-08-24T15:10:59.976Z,35.50
2022-08-24T15:13:38.639Z,37.00
2022-08-24T15:16:10.623Z,37.90
2022-08-24T15:18:43.223Z,38.60
2022-08-24T15:21:13.064Z,39.10
2022-08-24T15:23:45.455Z,39.60
2022-08-24T15:26:27.417Z,40.20
2022-08-24T15:28:56.657Z,40.80
2022-08-24T15:31:29.216Z,41.20
2022-08-24T15:34:00.303Z,41.10
2022-08-24T15:36:28.343Z,41.30
2022-08-24T15:38:55.499Z,41.50
2022-08-24T15:41:25.947Z,41.20
2022-08-24T15:43:55.740Z,41.00
2022-08-24T15:46:34.490Z,41.00
2022-08-24T15:49:08.178Z,40.90
2022-08-24T15:51:44.583Z,40.50
2022-08-24T15:54:31.092Z,40.00
2022-08-24T15:57:02.789Z,39.80
2022-08-24T15:59:29.581Z,39.60
2022-08-24T16:02:28.497Z,39.30
2022-08-24T16:05:25.240Z,39.00
2022-08-24T16:08:04.290Z,38.60
2022-08-24T16:10:46.572Z,38.10
2022-08-24T16:13:19.277Z,37.30
2022-08-24T16:15:51.557Z,36.60
2022-08-24T16:18:20.350Z,36.20
2022-08-24T16:20:48.878Z,35.80
2022-08-24T16:23:33.106Z,35.60
2022-08-24T16:26:26.954Z,35.40
2022-08-24T16:28:55.211Z,35.10
2022-08-24T16:31:40.805Z,34.90
2022-08-24T16:34:29.065Z,34.70
2022-08-24T16:36:56.462Z,34.50
2022-08-24T16:39:23.660Z,34.30
2022-08-24T16:41:56.091Z,35.60
2022-08-24T16:44:26.195Z,34.00
2022-08-24T16:46:53.187Z,33.90
2022-08-24T16:49:20.314Z,33.70
2022-08-24T16:51:47.018Z,33.40
2022-08-24T16:54:13.791Z,33.30
2022-08-24T16:56:42.148Z,33.70
2022-08-24T16:59:14.591Z,33.00
2022-08-24T17:01:41.356Z,32.80
2022-08-24T17:04:08.219Z,32.60
2022-08-24T17:06:35.819Z,32.50
2022-08-24T17:09:02.984Z,32.20
2022-08-24T17:11:29.763Z,32.00
2022-08-24T17:13:56.502Z,32.00
2022-08-24T17:16:23.264Z,32.00
2022-08-24T17:18:50.040Z,32.00
2022-08-24T17:21:17.965Z,31.90
2022-08-24T17:23:45.144Z,31.70
2022-08-24T17:26:20.659Z,31.70
2022-08-24T17:28:50.605Z,31.60
2022-08-24T17:31:17.420Z,31.50
2022-08-24T17:33:44.182Z,31.40
2022-08-24T17:36:15.216Z,31.40
2022-08-24T17:38:53.090Z,31.30
2022-08-24T17:41:23.031Z,31.30
2022-08-24T17:43:49.776Z,31.10
2022-08-24T17:46:18.595Z,31.00
2022-08-24T17:48:47.113Z,30.90
2022-08-24T17:51:15.032Z,30.90
2022-08-24T17:53:42.028Z,30.80
2022-08-24T17:56:09.700Z,30.70
2022-08-24T17:58:56.520Z,30.70
2022-08-24T18:01:23.903Z,30.60
2022-08-24T18:03:50.779Z,30.50
2022-08-24T18:06:23.738Z,30.40
2022-08-24T18:08:51.551Z,30.40
2022-08-24T18:11:21.605Z,30.40
2022-08-24T18:13:50.687Z,30.30
2022-08-24T18:16:20.855Z,30.30
2022-08-24T18:18:51.206Z,30.20
2022-08-24T18:21:20.105Z,30.20
2022-08-24T18:23:48.438Z,30.00
2022-08-24T18:26:25.813Z,30.00
2022-08-24T18:28:54.958Z,29.90
2022-08-24T18:31:24.698Z,29.80
2022-08-24T18:33:51.710Z,29.80
2022-08-24T18:36:18.463Z,29.80
2022-08-24T18:38:45.172Z,29.60
2022-08-24T18:41:12.276Z,29.70
2022-08-24T18:43:39.136Z,29.60
2022-08-24T18:46:06.201Z,29.60
2022-08-24T18:48:33.020Z,29.50
2022-08-24T18:51:01.010Z,29.50
2022-08-24T18:53:28.346Z,29.40
2022-08-24T18:55:55.332Z,29.40
2022-08-24T18:58:22.135Z,29.30
2022-08-24T19:00:51.139Z,29.30
2022-08-24T19:03:22.811Z,29.20
2022-08-24T19:05:49.752Z,28.80
2022-08-24T19:08:16.492Z,29.10
2022-08-24T19:10:43.333Z,29.00
2022-08-24T19:13:15.651Z,29.00
2022-08-24T19:15:43.177Z,28.90
2022-08-24T19:18:13.338Z,28.90
2022-08-24T19:20:47.379Z,28.80
2022-08-24T19:23:39.089Z,28.70
2022-08-24T19:26:06.279Z,28.60
2022-08-24T19:28:33.202Z,28.50
2022-08-24T19:31:02.693Z,28.50
2022-08-24T19:33:34.263Z,28.40
2022-08-24T19:36:01.472Z,28.40
2022-08-24T19:38:28.184Z,28.50
2022-08-24T19:40:57.464Z,28.50
2022-08-24T19:43:27.091Z,28.40
2022-08-24T19:46:06.362Z,28.50
2022-08-24T19:48:35.944Z,28.50
2022-08-24T19:51:04.976Z,28.40
2022-08-24T19:53:34.403Z,28.40
2022-08-24T19:56:01.674Z,28.40
2022-08-24T19:58:39.561Z,28.40
2022-08-24T20:01:13.216Z,28.40
2022-08-24T20:03:40.815Z,28.40
2022-08-24T20:06:07.623Z,28.30
2022-08-24T20:08:34.307Z,28.30
2022-08-24T20:11:01.645Z,28.30
2022-08-24T20:13:28.741Z,28.10
2022-08-24T20:15:57.265Z,28.10
2022-08-24T20:18:31.674Z,28.10
2022-08-24T20:20:59.683Z,28.00
2022-08-24T20:23:27.430Z,28.00
2022-08-24T20:25:55.616Z,28.00
2022-08-24T20:28:29.200Z,27.90
2022-08-24T20:30:56.885Z,27.90
2022-08-24T20:33:24.787Z,27.80
2022-08-24T20:35:51.789Z,27.70
2022-08-24T20:38:21.223Z,27.60
2022-08-24T20:40:49.109Z,27.60
2022-08-24T20:43:16.013Z,27.60
2022-08-24T20:45:42.874Z,27.50
2022-08-24T20:48:12.989Z,27.40
2022-08-24T20:50:43.841Z,27.50
2022-08-24T20:53:11.823Z,27.40
2022-08-24T20:55:42.031Z,27.30
2022-08-24T20:58:09.541Z,27.30
2022-08-24T21:00:38.314Z,27.30
2022-08-24T21:03:05.248Z,27.30
2022-08-24T21:05:32.468Z,27.30
2022-08-24T21:07:59.374Z,27.20
2022-08-24T21:10:27.318Z,27.20
2022-08-24T21:12:54.654Z,27.20
2022-08-24T21:15:23.121Z,27.30
2022-08-24T21:17:50.346Z,27.30
2022-08-24T21:20:18.480Z,27.30
2022-08-24T21:22:46.293Z,27.30
2022-08-24T21:25:14.556Z,27.10
2022-08-24T21:27:44.136Z,27.10
2022-08-24T21:30:22.433Z,27.00
2022-08-24T21:33:07.720Z,27.60
2022-08-24T21:35:36.030Z,26.80
2022-08-24T21:38:04.778Z,26.90
2022-08-24T21:40:32.017Z,26.90
2022-08-24T21:42:58.910Z,26.90
2022-08-24T21:45:26.989Z,26.90
2022-08-24T21:47:54.054Z,27.00
2022-08-24T21:50:20.836Z,26.90
2022-08-24T21:52:53.881Z,26.80
2022-08-24T21:55:27.201Z,26.80
2022-08-24T21:57:54.360Z,26.70
2022-08-24T22:00:21.737Z,26.60
2022-08-24T22:02:48.631Z,26.70
2022-08-24T22:05:16.514Z,26.70
2022-08-24T22:07:44.041Z,26.60
2022-08-24T22:10:12.011Z,26.50
2022-08-24T22:12:40.872Z,26.50
2022-08-24T22:15:11.651Z,26.60
2022-08-24T22:17:38.452Z,26.60
2022-08-24T22:20:07.780Z,26.60
2022-08-24T22:22:36.360Z,26.60
2022-08-24T22:25:04.744Z,26.70
2022-08-24T22:27:32.066Z,26.70
2022-08-24T22:29:59.251Z,26.60
2022-08-24T22:32:26.931Z,26.60
2022-08-24T22:34:53.596Z,26.60
2022-08-24T22:37:20.311Z,26.60
2022-08-24T22:39:47.085Z,26.50
2022-08-24T22:42:13.944Z,26.40
2022-08-24T22:44:40.857Z,26.30
2022-08-24T22:47:13.423Z,26.20
2022-08-24T22:49:45.587Z,26.20
2022-08-24T22:52:14.282Z,26.10
2022-08-24T22:54:41.379Z,26.00
2022-08-24T22:57:08.480Z,25.90
2022-08-24T22:59:38.132Z,25.90
2022-08-24T23:02:08.630Z,26.00
2022-08-24T23:04:38.275Z,26.00
2022-08-24T23:07:06.494Z,26.00
2022-08-24T23:09:44.409Z,25.90
2022-08-24T23:12:14.750Z,25.90
2022-08-24T23:14:41.731Z,25.90
2022-08-24T23:17:08.550Z,26.00
2022-08-24T23:19:54.440Z,26.00
2022-08-24T23:22:21.642Z,26.00
2022-08-24T23:24:48.730Z,25.90
2022-08-24T23:27:17.413Z,25.80
2022-08-24T23:29:45.959Z,25.80
2022-08-24T23:32:13.531Z,25.80
2022-08-24T23:34:45.541Z,25.70
2022-08-24T23:37:12.647Z,25.60
2022-08-24T23:39:39.643Z,25.70
2022-08-24T23:42:06.951Z,25.70
2022-08-24T23:44:34.351Z,25.70
2022-08-24T23:47:01.382Z,25.70
2022-08-24T23:49:29.355Z,25.70
2022-08-24T23:51:56.648Z,25.70
2022-08-24T23:54:24.124Z,25.80
2022-08-24T23:56:51.847Z,25.70
2022-08-24T23:59:22.428Z,25.80
